createdAt,value
2022-11-20T00:03:49.797Z,19.85
2022-11-20T00:08:52.144Z,20.30
2022-11-20T00:13:56.397Z,20.15
2022-11-20T00:18:58.276Z,20.23
2022-11-20T00:24:00.145Z,21.30
2022-11-20T00:29:02.663Z,20.80
2022-11-20T00:34:04.278Z,19.38
2022-11-20T00:39:05.885Z,19.33
2022-11-20T00:44:07.440Z,19.77
2022-11-20T00:49:09.039Z,18.92
2022-11-20T00:54:11.081Z,18.42
2022-11-20T00:59:12.795Z,20.15
2022-11-20T01:04:14.390Z,20.42
2022-11-20T01:09:16.041Z,21.05
2022-11-20T01:14:19.353Z,20.48
2022-11-20T01:19:23.520Z,21.13
2022-11-20T01:24:26.044Z,21.42
2022-11-20T01:29:27.715Z,19.63
2022-11-20T01:34:29.378Z,18.73
2022-11-20T01:39:31.048Z,20.73
2022-11-20T01:44:56.308Z,19.33
2022-11-20T01:50:06.686Z,18.65
2022-11-20T01:55:13.946Z,20.13
2022-11-20T02:00:18.709Z,18.98
2022-11-20T02:05:38.413Z,18.70
2022-11-20T02:10:40.562Z,18.75
2022-11-20T02:15:42.274Z,18.08
2022-11-20T02:20:46.298Z,18.92
2022-11-20T02:25:48.843Z,19.25
2022-11-20T02:30:50.674Z,18.83
2022-11-20T02:35:52.244Z,17.80
2022-11-20T02:40:55.675Z,21.60
2022-11-20T02:45:57.976Z,20.08
2022-11-20T02:50:59.575Z,17.90
2022-11-20T02:56:01.165Z,19.23
2022-11-20T03:01:02.790Z,20.67
2022-11-20T03:06:04.952Z,19.45
2022-11-20T03:11:08.159Z,19.90
2022-11-20T03:16:15.817Z,21.20
2022-11-20T03:21:17.455Z,22.73
2022-11-20T03:26:22.241Z,19.48
2022-11-20T03:31:44.407Z,19.83
2022-11-20T03:36:46.202Z,19.52
2022-11-20T03:41:47.781Z,17.58
2022-11-20T03:46:49.751Z,19.60
2022-11-20T03:51:51.436Z,19.38
2022-11-20T03:56:53.039Z,20.85
2022-11-20T04:01:54.659Z,20.48
2022-11-20T04:06:56.640Z,20.67
2022-11-20T04:11:58.409Z,21.10
2022-11-20T04:17:00.015Z,20.23
2022-11-20T04:22:01.746Z,20.98
2022-11-20T04:27:03.369Z,21.35
2022-11-20T04:32:05.100Z,18.45
2022-11-20T04:37:06.675Z,20.55
2022-11-20T04:42:28.965Z,20.83
2022-11-20T04:47:30.549Z,20.92
2022-11-20T04:52:32.303Z,21.67
2022-11-20T04:57:33.884Z,22.90
2022-11-20T05:02:35.481Z,20.65
2022-11-20T05:07:37.077Z,20.77
2022-11-20T05:12:38.702Z,21.08
2022-11-20T05:17:40.557Z,21.58
2022-11-20T05:22:42.132Z,21.15
2022-11-20T05:27:43.800Z,21.10
2022-11-20T05:32:45.393Z,23.38
2022-11-20T05:37:46.962Z,22.83
2022-11-20T05:42:48.736Z,24.23
2022-11-20T05:47:50.312Z,22.77
2022-11-20T05:52:51.913Z,23.25
2022-11-20T05:57:55.735Z,24.00
2022-11-20T06:02:57.704Z,25.92
2022-11-20T06:08:01.742Z,26.42
2022-11-20T06:13:03.377Z,27.20
2022-11-20T06:18:05.150Z,27.83
2022-11-20T06:23:06.756Z,28.42
2022-11-20T06:28:08.728Z,27.30
2022-11-20T06:33:10.353Z,29.10
2022-11-20T06:38:11.957Z,26.77
2022-11-20T06:43:13.592Z,27.40
2022-11-20T06:48:15.294Z,27.05
2022-11-20T06:53:17.104Z,30.13
2022-11-20T06:58:19.204Z,29.25
2022-11-20T07:03:20.972Z,29.58
2022-11-20T07:08:23.084Z,29.77
2022-11-20T07:13:24.685Z,28.60
2022-11-20T07:18:26.297Z,26.48
2022-11-20T07:23:27.930Z,27.67
2022-11-20T07:28:29.551Z,27.02
2022-11-20T07:33:31.504Z,25.38
2022-11-20T07:38:33.290Z,25.45
2022-11-20T07:43:39.921Z,28.88
2022-11-20T07:48:42.926Z,27.77
2022-11-20T07:53:44.507Z,28.13
2022-11-20T07:58:46.093Z,26.83
2022-11-20T08:03:47.840Z,26.73
2022-11-20T08:08:49.452Z,26.67
2022-11-20T08:14:09.725Z,27.50
2022-11-20T08:19:12.474Z,27.33
2022-11-20T08:24:14.195Z,25.08
2022-11-20T08:29:15.768Z,23.05
2022-11-20T08:34:19.157Z,24.42
2022-11-20T08:39:21.444Z,25.52
2022-11-20T08:44:23.539Z,27.02
2022-11-20T08:49:25.662Z,26.00
2022-11-20T08:54:27.249Z,25.38
2022-11-20T08:59:58.633Z,26.38
2022-11-20T09:04:50.999Z,25.75
2022-11-20T09:10:09.991Z,27.90
2022-11-20T09:15:14.187Z,28.88
2022-11-20T09:20:17.204Z,26.85
2022-11-20T09:25:19.355Z,25.58
2022-11-20T09:30:21.217Z,26.52
2022-11-20T09:35:22.951Z,28.67
2022-11-20T09:40:27.926Z,25.10
2022-11-20T09:45:43.910Z,25.85
2022-11-20T09:51:09.738Z,26.35
2022-11-20T09:56:12.379Z,25.33
2022-11-20T10:01:17.670Z,38.58
2022-11-20T10:06:25.439Z,25.88
2022-11-20T10:12:00.710Z,24.63
2022-11-20T10:17:50.434Z,26.95
2022-11-20T10:23:00.732Z,24.02
2022-11-20T10:28:08.097Z,26.23
2022-11-20T10:33:18.734Z,29.20
2022-11-20T10:38:26.546Z,26.80
2022-11-20T10:43:34.762Z,24.70
2022-11-20T10:48:39.085Z,25.33
2022-11-20T10:53:43.590Z,26.52
2022-11-20T10:59:03.392Z,27.15
2022-11-20T11:04:30.969Z,25.08
2022-11-20T11:09:39.689Z,23.88
2022-11-20T11:20:18.004Z,23.75
2022-11-20T11:25:40.985Z,26.48
2022-11-20T11:30:45.002Z,26.33
2022-11-20T11:35:51.562Z,25.38
2022-11-20T11:40:56.234Z,24.90
2022-11-20T11:45:58.500Z,26.55
2022-11-20T11:51:00.099Z,24.27
2022-11-20T11:56:10.245Z,26.92
2022-11-20T12:01:39.924Z,26.45
2022-11-20T12:11:55.918Z,27.33
2022-11-20T12:16:58.643Z,26.00
2022-11-20T12:22:15.413Z,23.92
2022-11-20T12:27:35.017Z,23.52
2022-11-20T12:32:54.625Z,23.83
2022-11-20T12:38:20.723Z,24.65
2022-11-20T12:43:44.509Z,21.08
2022-11-20T12:48:46.622Z,22.65
2022-11-20T12:54:07.288Z,22.92
2022-11-20T12:59:21.402Z,24.58
2022-11-20T13:05:12.589Z,20.98
2022-11-20T13:10:21.862Z,23.67
2022-11-20T13:15:46.668Z,23.52
2022-11-20T13:20:50.717Z,22.67
2022-11-20T13:26:03.440Z,22.42
2022-11-20T13:31:06.084Z,21.88
2022-11-20T13:36:23.285Z,23.13
2022-11-20T13:41:32.474Z,21.80
2022-11-20T13:46:40.252Z,21.73
2022-11-20T13:51:45.898Z,20.40
2022-11-20T13:57:02.667Z,21.05
2022-11-20T14:02:10.774Z,21.05
2022-11-20T14:07:13.892Z,21.33
2022-11-20T14:12:18.572Z,22.13
2022-11-20T14:17:24.571Z,20.60
2022-11-20T14:22:27.953Z,21.83
2022-11-20T14:27:29.700Z,22.75
2022-11-20T14:32:32.506Z,23.17
2022-11-20T14:37:37.541Z,23.42
2022-11-20T14:42:44.932Z,22.30
2022-11-20T14:47:47.387Z,22.88
2022-11-20T14:52:55.841Z,23.55
2022-11-20T14:58:00.779Z,23.15
2022-11-20T15:03:02.397Z,22.83
2022-11-20T15:08:11.511Z,25.23
2022-11-20T15:13:17.152Z,24.80
2022-11-20T15:18:25.384Z,23.63
2022-11-20T15:23:28.335Z,37.28
2022-11-20T15:28:36.121Z,28.67
2022-11-20T15:33:37.733Z,29.52
2022-11-20T15:38:39.560Z,32.67
2022-11-20T15:43:41.299Z,27.42
2022-11-20T15:48:52.017Z,27.38
2022-11-20T15:53:55.186Z,28.50
2022-11-20T15:58:56.831Z,24.67
2022-11-20T16:03:58.429Z,26.30
2022-11-20T16:09:00.208Z,24.80
2022-11-20T16:14:21.275Z,24.38
2022-11-20T16:19:23.245Z,25.38
2022-11-20T16:24:25.084Z,26.23
2022-11-20T16:29:27.062Z,26.55
2022-11-20T16:34:29.073Z,26.77
2022-11-20T16:39:30.985Z,26.20
2022-11-20T16:44:32.597Z,34.83
2022-11-20T16:49:34.188Z,34.67
2022-11-20T16:54:35.823Z,36.80
2022-11-20T16:59:37.986Z,28.10
2022-11-20T17:04:40.170Z,30.25
2022-11-20T17:09:41.807Z,25.17
2022-11-20T17:14:43.592Z,23.50
2022-11-20T17:19:45.213Z,23.67
2022-11-20T17:24:46.825Z,22.67
2022-11-20T17:29:48.430Z,23.50
2022-11-20T17:34:50.010Z,25.77
2022-11-20T17:39:51.602Z,23.17
2022-11-20T17:44:53.480Z,24.58
2022-11-20T17:49:55.507Z,27.05
2022-11-20T17:54:57.867Z,26.48
2022-11-20T17:59:59.442Z,24.17
2022-11-20T18:05:01.055Z,24.45
2022-11-20T18:10:02.666Z,26.23
2022-11-20T18:15:04.623Z,26.42
2022-11-20T18:20:28.018Z,28.50
2022-11-20T18:25:30.385Z,31.30
2022-11-20T18:30:31.969Z,28.08
2022-11-20T18:35:34.217Z,27.45
2022-11-20T18:40:36.784Z,25.83
2022-11-20T18:45:38.380Z,24.20
2022-11-20T18:50:40.140Z,23.52
2022-11-20T18:55:42.505Z,25.90
2022-11-20T19:00:44.636Z,28.35
2022-11-20T19:05:46.275Z,27.90
2022-11-20T19:10:48.076Z,28.02
2022-11-20T19:15:49.708Z,31.30
2022-11-20T19:20:51.280Z,32.95
2022-11-20T19:25:52.836Z,26.23
2022-11-20T19:30:54.417Z,20.65
2022-11-20T19:35:56.065Z,23.20
2022-11-20T19:40:57.645Z,24.33
2022-11-20T19:45:59.435Z,23.35
2022-11-20T19:51:25.246Z,29.88
2022-11-20T19:56:28.907Z,30.20
2022-11-20T20:01:31.811Z,25.15
2022-11-20T20:06:35.963Z,24.27
2022-11-20T20:11:38.373Z,23.73
2022-11-20T20:16:40.435Z,27.35
2022-11-20T20:21:42.917Z,29.90
2022-11-20T20:26:44.517Z,34.47
2022-11-20T20:31:46.348Z,32.00
2022-11-20T20:36:47.907Z,27.65
2022-11-20T20:41:50.143Z,24.67
2022-11-20T20:46:53.017Z,27.23
2022-11-20T20:51:54.701Z,30.73
2022-11-20T20:56:56.329Z,30.33
2022-11-20T21:01:57.946Z,29.50
2022-11-20T21:06:59.598Z,27.65
2022-11-20T21:12:01.233Z,32.35
2022-11-20T21:17:02.882Z,28.25
2022-11-20T21:22:04.714Z,28.92
2022-11-20T21:27:07.042Z,27.45
2022-11-20T21:32:08.680Z,29.48
2022-11-20T21:37:10.285Z,27.42
2022-11-20T21:42:12.004Z,29.20
2022-11-20T21:47:13.704Z,29.83
2022-11-20T21:52:15.290Z,26.67
2022-11-20T21:57:16.876Z,26.48
2022-11-20T22:02:18.483Z,27.63
2022-11-20T22:07:20.156Z,26.02
2022-11-20T22:12:22.625Z,26.60
2022-11-20T22:17:44.248Z,28.00
2022-11-20T22:22:45.840Z,26.45
2022-11-20T22:27:47.613Z,23.38
2022-11-20T22:32:50.027Z,23.85
2022-11-20T22:37:51.620Z,25.05
2022-11-20T22:42:53.189Z,24.02
2022-11-20T22:47:54.768Z,22.25
2022-11-20T22:52:56.338Z,20.52
2022-11-20T22:57:57.912Z,20.63
2022-11-20T23:02:59.486Z,19.60
2022-11-20T23:08:01.086Z,21.00
2022-11-20T23:13:02.715Z,22.15
2022-11-20T23:18:04.376Z,21.85
2022-11-20T23:23:05.971Z,21.52
2022-11-20T23:28:07.600Z,20.10
2022-11-20T23:33:09.184Z,20.70
2022-11-20T23:38:10.934Z,18.75
2022-11-20T23:43:15.181Z,18.17
2022-11-20T23:48:17.756Z,19.13
2022-11-20T23:53:19.418Z,19.92
2022-11-20T23:58:22.492Z,16.38
